Time;durP1;ratioP1;P1;durP2;ratioP2;P2;SDS_P1;SDS_P2;PMS_P1;PMS_P2;Temp;Humidity;BMP_temperature;BMP_pressure;BME280_temperature;BME280_humidity;BME280_pressure;Samples;Min_cycle;Max_cycle;Signal;HPM_P1;HPM_P2
2022/12/14 00:01:40;;;;;;;30.57;15.70;;;-4.90;99.90;;;;;;5259627;28;20538;-52
2022/12/14 00:04:11;;;;;;;33.57;15.93;;;-4.90;99.90;;;;;;5259032;28;20432;-50
2022/12/14 00:06:42;;;;;;;24.63;13.63;;;-4.90;99.90;;;;;;5261984;28;20226;-52
2022/12/14 00:09:12;;;;;;;28.53;14.17;;;-4.90;99.90;;;;;;5261232;28;20681;-52
2022/12/14 00:11:43;;;;;;;30.93;14.97;;;-5.00;99.90;;;;;;5263975;28;20250;-50
2022/12/14 00:14:14;;;;;;;31.97;14.53;;;-5.00;99.90;;;;;;5263290;28;20189;-51
2022/12/14 00:16:45;;;;;;;30.80;15.60;;;-4.90;99.90;;;;;;5258176;28;20566;-51
2022/12/14 00:19:15;;;;;;;25.70;14.57;;;-5.00;99.90;;;;;;5257168;28;20464;-52
2022/12/14 00:21:46;;;;;;;27.13;15.67;;;-4.90;99.90;;;;;;5256042;28;20202;-50
2022/12/14 00:24:17;;;;;;;33.83;16.20;;;-5.10;99.90;;;;;;5269997;28;20648;-51
2022/12/14 00:26:47;;;;;;;31.10;16.20;;;-5.00;99.90;;;;;;5263864;28;20188;-52
2022/12/14 00:29:18;;;;;;;31.57;17.00;;;-5.10;99.90;;;;;;5270052;28;20185;-50
2022/12/14 00:31:49;;;;;;;29.97;16.27;;;-5.20;99.90;;;;;;5252054;28;20205;-52
2022/12/14 00:34:20;;;;;;;30.70;15.93;;;-5.10;99.90;;;;;;5258566;28;20181;-53
2022/12/14 00:36:51;;;;;;;27.40;16.13;;;-5.20;99.90;;;;;;5256911;28;20427;-52
2022/12/14 00:39:22;;;;;;;27.87;16.47;;;-5.20;99.90;;;;;;5258251;28;20206;-50
2022/12/14 00:41:52;;;;;;;35.27;15.80;;;-5.20;99.90;;;;;;5257084;28;20546;-50
2022/12/14 00:44:23;;;;;;;33.27;18.40;;;-5.20;99.90;;;;;;5264582;28;20210;-52
2022/12/14 00:46:54;;;;;;;27.53;15.83;;;-5.20;99.90;;;;;;5256159;28;20209;-52
2022/12/14 00:49:24;;;;;;;34.40;17.40;;;-5.30;99.90;;;;;;5258697;28;20185;-51
2022/12/14 00:51:55;;;;;;;29.63;17.00;;;-5.20;99.90;;;;;;5265318;28;20428;-53
2022/12/14 00:54:26;;;;;;;33.13;17.20;;;-5.20;99.90;;;;;;5259478;28;20197;-50
2022/12/14 00:56:56;;;;;;;31.70;16.03;;;-5.30;99.90;;;;;;5268065;28;20294;-51
2022/12/14 00:59:27;;;;;;;32.40;17.27;;;-5.30;99.90;;;;;;5259283;28;20735;-51
2022/12/14 01:01:57;;;;;;;31.70;16.23;;;-5.30;99.90;;;;;;5263556;28;20202;-55
2022/12/14 01:04:28;;;;;;;35.20;18.47;;;-5.40;99.90;;;;;;5264057;28;20182;-51
2022/12/14 01:06:59;;;;;;;37.63;18.60;;;-5.40;99.90;;;;;;5261695;28;20193;-49
2022/12/14 01:09:29;;;;;;;31.70;17.70;;;-5.40;99.90;;;;;;5252008;28;20444;-51
2022/12/14 01:12:00;;;;;;;39.53;18.03;;;-5.30;99.90;;;;;;5261785;28;20228;-52
2022/12/14 01:14:31;;;;;;;37.70;20.20;;;-5.50;99.90;;;;;;5258004;28;20221;-51
2022/12/14 01:17:01;;;;;;;32.57;17.87;;;-5.40;99.90;;;;;;5262193;28;20229;-50
2022/12/14 01:19:33;;;;;;;34.17;19.63;;;-5.40;99.90;;;;;;5255794;28;20190;-52
2022/12/14 01:22:03;;;;;;;33.47;18.30;;;-5.50;99.90;;;;;;5261159;28;20803;-50
2022/12/14 01:24:34;;;;;;;43.17;21.30;;;-5.40;99.90;;;;;;5263253;28;20435;-51
2022/12/14 01:27:05;;;;;;;43.10;18.60;;;-5.50;99.90;;;;;;5257171;28;20186;-52
2022/12/14 01:29:35;;;;;;;36.03;18.73;;;-5.50;99.90;;;;;;5266229;28;20174;-52
2022/12/14 01:32:06;;;;;;;35.33;19.67;;;-5.50;99.90;;;;;;5260728;28;20209;-52
2022/12/14 01:34:37;;;;;;;31.03;17.77;;;-5.50;99.90;;;;;;5262459;28;20660;-51
2022/12/14 01:37:07;;;;;;;35.67;18.07;;;-5.60;99.90;;;;;;5252337;28;20186;-51
2022/12/14 01:39:38;;;;;;;34.13;18.17;;;-5.60;99.90;;;;;;5263781;28;20201;-52
2022/12/14 01:42:13;;;;;;;36.30;18.40;;;-5.60;99.90;;;;;;5266264;28;20538;-50
2022/12/14 01:44:44;;;;;;;34.13;16.50;;;-5.60;99.90;;;;;;5264808;28;20169;-51
2022/12/14 01:47:22;;;;;;;44.50;19.00;;;-5.70;99.90;;;;;;5265000;28;20426;-51
2022/12/14 01:50:05;;;;;;;38.57;18.60;;;-5.60;99.90;;;;;;5262166;28;20660;-51
2022/12/14 01:52:41;;;;;;;35.93;18.87;;;-5.70;99.90;;;;;;5265574;28;21047;-50
2022/12/14 01:55:20;;;;;;;31.70;17.77;;;-5.70;99.90;;;;;;5254477;28;20419;-53
2022/12/14 01:58:11;;;;;;;48.90;20.00;;;-5.70;99.90;;;;;;5267051;28;20435;-53
2022/12/14 02:00:43;;;;;;;32.23;18.73;;;-5.70;99.90;;;;;;5270436;28;20455;-50
2022/12/14 02:03:18;;;;;;;38.00;18.93;;;-5.80;99.90;;;;;;5265178;28;20494;-50
2022/12/14 02:06:02;;;;;;;32.17;17.13;;;-5.80;99.90;;;;;;5260016;28;20412;-51
2022/12/14 02:08:33;;;;;;;37.20;19.03;;;-5.90;99.90;;;;;;5258410;28;20423;-51
2022/12/14 02:11:04;;;;;;;42.67;19.27;;;-5.80;99.90;;;;;;5269801;28;20435;-50
2022/12/14 02:13:39;;;;;;;38.90;19.77;;;-5.80;99.90;;;;;;5266224;28;20459;-51
2022/12/14 02:16:10;;;;;;;29.30;16.10;;;-5.80;99.90;;;;;;5263489;28;20852;-54
2022/12/14 02:18:40;;;;;;;34.07;18.80;;;-5.90;99.90;;;;;;5260395;28;20468;-50
2022/12/14 02:21:21;;;;;;;32.03;17.20;;;-5.80;99.90;;;;;;5267518;28;20518;-51
2022/12/14 02:24:12;;;;;;;35.40;18.70;;;-5.90;99.90;;;;;;5259523;28;20648;-49
2022/12/14 02:27:17;;;;;;;37.73;17.73;;;-5.80;99.90;;;;;;5258606;28;20427;-54
2022/12/14 02:30:10;;;;;;;31.87;16.77;;;-6.00;99.90;;;;;;5245099;28;20527;-51
2022/12/14 02:33:09;;;;;;;40.10;19.63;;;-6.00;99.90;;;;;;5284937;22;20584;-48
2022/12/14 02:35:49;;;;;;;44.93;19.70;;;-6.00;99.90;;;;;;5277073;27;20832;-45
2022/12/14 02:38:49;;;;;;;37.70;18.33;;;-6.00;99.90;;;;;;5289032;28;20596;-48
2022/12/14 02:41:42;;;;;;;37.33;18.73;;;-5.90;99.90;;;;;;5285568;27;20950;-48
2022/12/14 02:44:48;;;;;;;38.90;18.97;;;-6.00;99.90;;;;;;5256390;28;20510;-47
2022/12/14 02:47:30;;;;;;;36.67;18.80;;;-6.00;99.90;;;;;;5256469;28;20642;-47
2022/12/14 02:50:19;;;;;;;30.10;17.50;;;-6.00;99.90;;;;;;5268158;28;20432;-46
2022/12/14 02:53:07;;;;;;;40.27;18.77;;;-6.00;99.90;;;;;;5265111;28;20496;-47
2022/12/14 02:55:42;;;;;;;37.53;19.27;;;-6.10;99.90;;;;;;5266907;28;20430;-47
2022/12/14 02:58:21;;;;;;;35.77;18.80;;;-6.10;99.90;;;;;;5262020;28;20487;-47
2022/12/14 03:00:54;;;;;;;36.73;19.67;;;-6.10;99.90;;;;;;5251988;28;20432;-47
2022/12/14 03:03:25;;;;;;;41.83;17.50;;;-6.20;99.90;;;;;;5266903;28;20488;-46
2022/12/14 03:06:13;;;;;;;42.17;18.90;;;-6.20;99.90;;;;;;5264657;28;20456;-46
2022/12/14 03:08:46;;;;;;;36.53;17.57;;;-6.30;99.90;;;;;;5263716;28;20182;-49
2022/12/14 03:11:21;;;;;;;37.90;18.00;;;-6.30;99.90;;;;;;5257696;28;20484;-46
2022/12/14 03:14:01;;;;;;;33.73;17.30;;;-6.30;99.90;;;;;;5264814;28;20455;-47
2022/12/14 03:16:43;;;;;;;37.70;19.40;;;-6.40;99.90;;;;;;5263639;28;20444;-47
2022/12/14 03:19:25;;;;;;;42.30;19.37;;;-6.40;99.90;;;;;;5267780;28;20461;-48
2022/12/14 03:22:00;;;;;;;37.60;19.10;;;-6.30;99.90;;;;;;5262488;28;20473;-49
2022/12/14 03:24:40;;;;;;;41.93;20.33;;;-6.40;99.90;;;;;;5267459;28;20434;-47
2022/12/14 03:27:32;;;;;;;35.73;19.30;;;-6.40;99.90;;;;;;5263710;28;20434;-48
2022/12/14 03:30:10;;;;;;;31.50;17.97;;;-6.40;99.90;;;;;;5255454;28;20435;-47
2022/12/14 03:33:03;;;;;;;35.83;18.57;;;-6.40;99.90;;;;;;5256061;28;20499;-49
2022/12/14 03:35:42;;;;;;;37.17;18.90;;;-6.40;99.90;;;;;;5257531;28;20523;-48
2022/12/14 03:38:27;;;;;;;34.27;18.43;;;-6.40;99.90;;;;;;5255557;28;20519;-48
2022/12/14 03:41:27;;;;;;;37.70;18.17;;;-6.40;99.90;;;;;;5255899;28;20427;-46
2022/12/14 03:44:10;;;;;;;36.03;18.03;;;-6.50;99.90;;;;;;5264012;28;20892;-47
2022/12/14 03:47:10;;;;;;;29.87;17.60;;;-6.60;99.90;;;;;;5265915;28;20564;-47
2022/12/14 03:50:04;;;;;;;42.33;20.20;;;-6.50;99.90;;;;;;5260850;28;20432;-48
2022/12/14 03:52:42;;;;;;;34.67;18.30;;;-6.60;99.90;;;;;;5280922;28;20464;-47
2022/12/14 03:55:34;;;;;;;38.83;20.23;;;-6.50;99.90;;;;;;5279851;28;20848;-47
2022/12/14 03:58:33;;;;;;;39.17;18.67;;;-6.50;99.90;;;;;;5282360;28;20439;-48
2022/12/14 04:01:27;;;;;;;36.83;19.50;;;-6.50;99.90;;;;;;5268512;28;20428;-48
2022/12/14 04:04:32;;;;;;;44.80;21.50;;;-6.50;99.90;;;;;;5271554;28;21193;-47
2022/12/14 04:07:12;;;;;;;41.63;19.53;;;-6.60;99.90;;;;;;5262882;28;20427;-47
2022/12/14 04:18:55;;;;;;;35.23;18.03;;;-6.60;99.90;;;;;;5260356;28;20845;-48
2022/12/14 04:19:00;;;;;;;37.37;20.13;;;-6.70;99.90;;;;;;5265953;28;20460;-47
2022/12/14 04:21:43;;;;;;;50.97;22.47;;;-6.80;99.90;;;;;;5265035;28;20442;-48
2022/12/14 04:27:27;;;;;;;45.23;19.80;;;-6.80;99.90;;;;;;5256331;28;20431;-50
2022/12/14 04:30:00;;;;;;;36.67;19.20;;;-6.80;99.90;;;;;;5253392;28;20934;-49
2022/12/14 04:32:31;;;;;;;44.63;20.97;;;-6.90;99.90;;;;;;5266325;28;20839;-51
2022/12/14 04:35:04;;;;;;;34.57;18.63;;;-6.90;99.90;;;;;;5263836;28;20448;-49
2022/12/14 04:37:37;;;;;;;34.37;18.87;;;-6.90;99.90;;;;;;5282706;28;20668;-48
2022/12/14 04:40:16;;;;;;;39.27;19.80;;;-6.90;99.90;;;;;;5266358;28;20562;-48
2022/12/14 04:43:02;;;;;;;45.93;19.97;;;-6.90;99.90;;;;;;5275038;28;20506;-50
2022/12/14 04:45:39;;;;;;;34.37;18.13;;;-6.90;99.90;;;;;;5269597;28;20930;-49
2022/12/14 04:48:47;;;;;;;44.90;19.60;;;-6.90;99.90;;;;;;5268522;28;20790;-49
2022/12/14 04:51:44;;;;;;;40.67;19.77;;;-6.80;99.90;;;;;;5266732;28;20431;-49
2022/12/14 04:54:44;;;;;;;38.60;19.90;;;-6.90;99.90;;;;;;5260565;28;20412;-49
2022/12/14 04:57:17;;;;;;;37.20;20.00;;;-6.90;99.90;;;;;;5260333;28;20874;-49
2022/12/14 04:59:49;;;;;;;37.00;18.23;;;-6.90;99.90;;;;;;5260339;28;20477;-50
2022/12/14 05:02:57;;;;;;;51.10;19.87;;;-6.90;99.90;;;;;;5259700;28;20467;-49
2022/12/14 05:05:43;;;;;;;40.27;20.10;;;-6.90;99.90;;;;;;5263292;28;20962;-49
2022/12/14 05:08:42;;;;;;;28.67;16.80;;;-6.90;99.90;;;;;;5262296;28;20939;-49
2022/12/14 05:11:15;;;;;;;38.77;20.10;;;-6.80;99.90;;;;;;5210474;28;20439;-50
2022/12/14 05:13:49;;;;;;;31.10;18.30;;;-6.90;99.90;;;;;;5264749;28;20811;-49
2022/12/14 05:16:22;;;;;;;38.67;18.37;;;-6.80;99.90;;;;;;5258292;28;20446;-50
2022/12/14 05:18:53;;;;;;;43.53;19.60;;;-6.90;99.90;;;;;;5248599;28;20558;-50
2022/12/14 05:24:13;;;;;;;43.20;19.43;;;-6.90;99.90;;;;;;5258310;28;20255;-49
2022/12/14 05:26:44;;;;;;;37.03;19.17;;;-6.90;99.90;;;;;;5253663;28;20809;-47
2022/12/14 05:29:16;;;;;;;37.43;19.20;;;-6.90;99.90;;;;;;5262147;28;20488;-49
2022/12/14 05:31:47;;;;;;;43.07;19.27;;;-6.70;99.90;;;;;;5264922;28;20810;-49
2022/12/14 05:34:18;;;;;;;29.73;18.63;;;-6.80;99.90;;;;;;5263266;28;20443;-50
2022/12/14 05:36:48;;;;;;;37.90;18.80;;;-6.80;99.90;;;;;;5259422;28;20190;-49
2022/12/14 05:39:19;;;;;;;38.80;17.80;;;-6.80;99.90;;;;;;5263368;28;20206;-48
2022/12/14 05:41:50;;;;;;;33.03;17.10;;;-6.80;99.90;;;;;;5264405;28;20667;-49
2022/12/14 05:44:20;;;;;;;34.40;19.80;;;-6.80;99.90;;;;;;5261311;28;20174;-50
2022/12/14 05:46:51;;;;;;;34.60;16.40;;;-6.70;99.90;;;;;;5255242;28;20178;-50
2022/12/14 05:49:22;;;;;;;35.63;18.30;;;-6.60;99.90;;;;;;5276440;28;20198;-49
2022/12/14 05:51:52;;;;;;;33.47;16.70;;;-6.70;99.90;;;;;;5263450;28;20193;-49
2022/12/14 05:54:23;;;;;;;28.20;15.77;;;-6.80;99.90;;;;;;5261201;28;20185;-46
2022/12/14 05:56:54;;;;;;;37.20;18.50;;;-6.80;99.90;;;;;;5261118;28;20216;-49
2022/12/14 05:59:24;;;;;;;42.50;20.17;;;-6.80;99.90;;;;;;5253806;28;20217;-48
2022/12/14 06:01:55;;;;;;;38.63;18.43;;;-6.80;99.90;;;;;;5253071;28;20306;-49
2022/12/14 06:04:26;;;;;;;41.23;21.03;;;-6.80;99.90;;;;;;5264006;28;20189;-49
2022/12/14 06:06:57;;;;;;;43.60;20.90;;;-6.90;99.90;;;;;;5260127;28;20186;-48
2022/12/14 06:09:28;;;;;;;38.63;19.80;;;-6.90;99.90;;;;;;5263102;28;20517;-49
2022/12/14 06:11:58;;;;;;;40.73;20.60;;;-7.00;99.90;;;;;;5266895;28;20185;-48
2022/12/14 06:14:29;;;;;;;34.67;20.43;;;-6.90;99.90;;;;;;5266519;28;20189;-50
2022/12/14 06:17:00;;;;;;;34.67;19.00;;;-6.90;99.90;;;;;;5261609;28;20185;-50
2022/12/14 06:19:30;;;;;;;39.07;18.70;;;-7.10;99.90;;;;;;5253895;28;20202;-49
2022/12/14 06:22:01;;;;;;;33.20;17.90;;;-7.00;99.90;;;;;;5247243;28;20185;-49
2022/12/14 06:24:32;;;;;;;36.97;17.23;;;-7.00;99.90;;;;;;5262462;28;20664;-48
2022/12/14 06:27:03;;;;;;;38.30;18.60;;;-7.00;99.90;;;;;;5249523;28;20276;-50
2022/12/14 06:29:33;;;;;;;37.63;17.87;;;-7.00;99.90;;;;;;5267842;28;20181;-49
2022/12/14 06:32:04;;;;;;;29.57;15.50;;;-7.00;99.90;;;;;;5270614;28;20224;-49
2022/12/14 06:34:35;;;;;;;40.90;19.13;;;-6.90;99.90;;;;;;5266559;28;20288;-49
2022/12/14 06:37:05;;;;;;;37.90;17.50;;;-7.00;99.90;;;;;;5268221;28;20834;-50
2022/12/14 06:39:36;;;;;;;36.63;17.73;;;-7.00;99.90;;;;;;5263785;28;20202;-48
2022/12/14 06:42:07;;;;;;;43.83;19.03;;;-6.90;99.90;;;;;;5265732;28;20261;-48
2022/12/14 06:44:38;;;;;;;39.67;19.00;;;-7.00;99.90;;;;;;5271044;28;20276;-49
2022/12/14 06:47:09;;;;;;;39.83;16.60;;;-7.10;99.90;;;;;;5263405;28;20970;-49
2022/12/14 06:49:39;;;;;;;32.77;18.00;;;-7.00;99.90;;;;;;5276153;28;20183;-48
2022/12/14 06:52:10;;;;;;;31.40;16.80;;;-7.00;99.90;;;;;;5264379;28;20654;-48
2022/12/14 06:54:40;;;;;;;38.10;18.07;;;-7.00;99.90;;;;;;5262406;28;20194;-47
2022/12/14 06:57:11;;;;;;;31.93;16.63;;;-6.90;99.90;;;;;;5260492;28;20186;-48
2022/12/14 06:59:42;;;;;;;30.63;16.13;;;-6.90;99.90;;;;;;5256303;28;20209;-49
2022/12/14 07:02:12;;;;;;;33.73;17.67;;;-6.90;99.90;;;;;;5261196;28;20202;-50
2022/12/14 07:04:43;;;;;;;38.53;17.23;;;-6.90;99.90;;;;;;5255996;28;20216;-51
2022/12/14 07:07:14;;;;;;;39.33;18.27;;;-6.90;99.90;;;;;;5255656;28;20667;-51
2022/12/14 07:09:44;;;;;;;33.70;18.77;;;-6.90;99.90;;;;;;5254114;28;20181;-49
2022/12/14 07:12:15;;;;;;;41.00;17.00;;;-7.00;99.90;;;;;;5254563;28;20260;-49
2022/12/14 07:14:46;;;;;;;31.57;17.93;;;-7.00;99.90;;;;;;5265264;28;20191;-50
2022/12/14 07:17:16;;;;;;;31.67;16.87;;;-6.90;99.90;;;;;;5258206;28;20200;-50
2022/12/14 07:19:47;;;;;;;35.67;17.63;;;-6.90;99.90;;;;;;5254819;28;20243;-51
2022/12/14 07:22:18;;;;;;;31.53;16.10;;;-6.90;99.90;;;;;;5259016;28;20597;-51
2022/12/14 07:24:49;;;;;;;38.97;18.30;;;-6.80;99.90;;;;;;5260026;28;20837;-50
2022/12/14 07:27:20;;;;;;;32.30;17.10;;;-6.90;99.90;;;;;;5252640;28;20891;-50
2022/12/14 07:29:51;;;;;;;37.93;17.13;;;-6.80;99.90;;;;;;5266131;28;20182;-51
2022/12/14 07:32:22;;;;;;;34.73;17.13;;;-6.80;99.90;;;;;;5259620;28;20210;-48
2022/12/14 07:34:52;;;;;;;34.63;17.60;;;-6.80;99.90;;;;;;5257231;28;20300;-49
2022/12/14 07:37:23;;;;;;;37.87;18.67;;;-6.80;99.90;;;;;;5259316;28;20225;-49
2022/12/14 07:39:54;;;;;;;42.40;18.73;;;-6.90;99.90;;;;;;5255723;28;20296;-49
2022/12/14 07:42:24;;;;;;;33.37;17.80;;;-6.80;99.90;;;;;;5254269;28;20217;-51
2022/12/14 07:44:55;;;;;;;40.93;19.43;;;-6.80;99.90;;;;;;5256026;28;20192;-51
2022/12/14 07:47:29;;;;;;;35.23;17.80;;;-6.80;99.90;;;;;;5257543;28;20197;-49
2022/12/14 07:50:00;;;;;;;40.10;18.10;;;-6.80;99.90;;;;;;5257206;28;20187;-50
2022/12/14 07:52:31;;;;;;;34.80;17.90;;;-6.80;99.90;;;;;;5252245;28;20816;-48
2022/12/14 07:55:02;;;;;;;40.83;19.50;;;-6.70;99.90;;;;;;5259806;28;20190;-51
2022/12/14 07:57:33;;;;;;;35.30;17.40;;;-6.70;99.90;;;;;;5252449;28;20466;-50
2022/12/14 08:00:04;;;;;;;34.30;18.10;;;-6.60;99.90;;;;;;5256669;28;20297;-50
2022/12/14 08:02:35;;;;;;;39.10;17.97;;;-6.50;99.90;;;;;;5250092;28;20463;-50
2022/12/14 08:05:06;;;;;;;39.93;17.80;;;-6.50;99.90;;;;;;5256184;28;20432;-50
2022/12/14 08:07:37;;;;;;;42.53;18.77;;;-6.60;99.90;;;;;;5276305;28;20633;-49
2022/12/14 08:10:07;;;;;;;36.60;17.80;;;-6.70;99.90;;;;;;5262769;28;20438;-50
2022/12/14 08:12:38;;;;;;;32.70;16.30;;;-6.50;99.90;;;;;;5258800;28;20222;-48
2022/12/14 08:15:09;;;;;;;40.40;18.67;;;-6.50;99.90;;;;;;5259435;28;20556;-48
2022/12/14 08:17:40;;;;;;;35.93;17.90;;;-6.50;99.90;;;;;;5272234;28;20847;-50
2022/12/14 08:20:11;;;;;;;32.33;17.13;;;-6.40;99.90;;;;;;5257316;28;20661;-48
2022/12/14 08:22:42;;;;;;;36.20;17.77;;;-6.40;99.90;;;;;;5256283;28;20208;-49
2022/12/14 08:25:12;;;;;;;26.80;15.70;;;-6.40;99.90;;;;;;5255305;28;20806;-50
2022/12/14 08:27:45;;;;;;;34.47;17.37;;;-6.30;99.90;;;;;;5255463;28;20260;-51
2022/12/14 08:30:15;;;;;;;33.87;17.53;;;-6.30;99.90;;;;;;5254509;28;20765;-51
2022/12/14 08:32:46;;;;;;;31.00;16.60;;;-6.30;99.90;;;;;;5280750;22;20575;-52
2022/12/14 08:35:17;;;;;;;37.60;18.10;;;-6.20;99.90;;;;;;5281214;28;20720;-52
2022/12/14 08:37:47;;;;;;;30.73;16.00;;;-6.20;99.90;;;;;;5280068;28;20230;-53
2022/12/14 08:40:18;;;;;;;33.87;18.30;;;-6.20;99.90;;;;;;5272874;28;20305;-52
2022/12/14 08:42:49;;;;;;;34.70;17.90;;;-6.20;99.90;;;;;;5271449;28;20339;-50
2022/12/14 08:45:20;;;;;;;32.33;16.60;;;-6.10;99.90;;;;;;5256460;28;20628;-53
2022/12/14 08:47:51;;;;;;;28.80;15.80;;;-6.10;99.90;;;;;;5260275;28;20795;-52
2022/12/14 08:50:22;;;;;;;28.27;16.27;;;-6.10;99.90;;;;;;5256743;28;20189;-50
2022/12/14 08:52:53;;;;;;;34.80;17.27;;;-6.10;99.90;;;;;;5257354;28;20501;-51
2022/12/14 08:55:23;;;;;;;33.70;17.20;;;-6.10;99.90;;;;;;5258282;28;20177;-53
2022/12/14 08:57:54;;;;;;;31.53;17.00;;;-6.00;99.90;;;;;;5256184;28;20192;-52
2022/12/14 09:00:24;;;;;;;29.37;15.93;;;-6.00;99.90;;;;;;5258625;28;20228;-52
2022/12/14 09:02:55;;;;;;;26.40;15.97;;;-5.80;99.90;;;;;;5257659;28;20198;-53
2022/12/14 09:05:26;;;;;;;39.93;20.03;;;-5.80;99.90;;;;;;5253248;28;20208;-51
2022/12/14 09:07:56;;;;;;;37.87;19.10;;;-5.70;99.90;;;;;;5262239;28;20189;-52
2022/12/14 09:10:27;;;;;;;34.10;18.10;;;-5.60;99.90;;;;;;5252183;28;20705;-52
2022/12/14 09:12:58;;;;;;;32.23;15.20;;;-5.60;99.90;;;;;;5263031;28;20292;-53
2022/12/14 09:15:29;;;;;;;31.50;16.20;;;-5.50;99.90;;;;;;5254785;28;20613;-51
2022/12/14 09:18:00;;;;;;;29.90;16.57;;;-5.40;99.90;;;;;;5257954;28;20205;-51
2022/12/14 09:20:30;;;;;;;33.93;17.10;;;-5.40;99.90;;;;;;5257206;28;22452;-51
2022/12/14 09:23:01;;;;;;;34.20;16.70;;;-5.30;99.90;;;;;;5255087;28;20267;-52
2022/12/14 09:25:32;;;;;;;28.80;15.50;;;-5.30;99.90;;;;;;5262895;28;20182;-50
2022/12/14 09:28:03;;;;;;;28.93;14.60;;;-5.30;99.90;;;;;;5259126;28;20783;-52
2022/12/14 09:30:33;;;;;;;25.83;15.87;;;-5.30;99.90;;;;;;5261315;28;20188;-53
2022/12/14 09:33:04;;;;;;;31.17;15.17;;;-5.30;99.90;;;;;;5261960;28;20216;-52
2022/12/14 09:35:34;;;;;;;32.67;17.03;;;-5.30;99.90;;;;;;5260960;28;20197;-53
2022/12/14 09:38:05;;;;;;;32.70;16.80;;;-5.30;99.90;;;;;;5262557;28;20193;-53
2022/12/14 09:40:41;;;;;;;32.87;15.90;;;-5.20;99.90;;;;;;5261657;28;20209;-53
2022/12/14 09:43:26;;;;;;;31.27;16.47;;;-5.10;99.90;;;;;;5259214;28;20204;-53
2022/12/14 09:46:07;;;;;;;37.63;16.03;;;-5.10;99.90;;;;;;5259182;28;20482;-53
2022/12/14 09:48:40;;;;;;;30.73;15.80;;;-5.20;99.90;;;;;;5255140;28;20444;-54
2022/12/14 09:51:15;;;;;;;31.13;15.30;;;-5.10;99.90;;;;;;5257323;28;20467;-53
2022/12/14 09:53:49;;;;;;;29.77;15.77;;;-5.10;99.90;;;;;;5256601;28;20870;-52
2022/12/14 09:56:20;;;;;;;32.03;17.20;;;-5.00;99.90;;;;;;5248329;28;20481;-53
2022/12/14 09:58:55;;;;;;;26.57;15.33;;;-5.10;99.90;;;;;;5253849;28;21066;-54
2022/12/14 10:01:50;;;;;;;30.37;16.00;;;-4.90;99.90;;;;;;5275569;28;20284;-53
2022/12/14 10:04:21;;;;;;;31.13;16.10;;;-4.90;99.90;;;;;;5254498;28;20451;-53
2022/12/14 10:07:29;;;;;;;33.57;16.47;;;-4.90;99.90;;;;;;5256192;28;20442;-53
2022/12/14 10:10:08;;;;;;;26.43;15.50;;;-4.90;99.90;;;;;;5249643;28;20209;-52
2022/12/14 10:13:09;;;;;;;25.00;13.90;;;-5.00;99.90;;;;;;5255295;28;20455;-54
2022/12/14 10:15:53;;;;;;;26.50;14.27;;;-4.80;99.90;;;;;;5259977;28;20633;-51
2022/12/14 10:18:51;;;;;;;26.67;14.10;;;-4.80;99.90;;;;;;5253045;28;20483;-52
2022/12/14 10:21:27;;;;;;;28.77;13.57;;;-4.70;99.90;;;;;;5255173;28;20435;-52
2022/12/14 10:24:01;;;;;;;25.50;14.37;;;-4.50;99.90;;;;;;5258812;28;20566;-52
2022/12/14 10:26:41;;;;;;;31.73;14.80;;;-4.40;99.90;;;;;;5254787;28;20492;-52
2022/12/14 10:29:38;;;;;;;27.53;13.50;;;-4.40;99.90;;;;;;5256009;28;20446;-52
2022/12/14 10:32:36;;;;;;;31.07;15.53;;;-4.30;99.90;;;;;;5246523;28;20448;-51
2022/12/14 10:35:37;;;;;;;32.30;14.93;;;-4.30;99.90;;;;;;5274892;28;20475;-53
2022/12/14 10:38:46;;;;;;;33.07;16.53;;;-4.10;99.90;;;;;;5234993;28;20463;-51
2022/12/14 10:41:38;;;;;;;23.73;13.37;;;-4.10;99.90;;;;;;5251754;28;20560;-53
2022/12/14 10:44:38;;;;;;;27.60;13.50;;;-4.10;99.90;;;;;;5265183;28;20488;-52
2022/12/14 10:47:20;;;;;;;26.07;14.40;;;-4.00;99.90;;;;;;5267112;28;20515;-51
2022/12/14 10:50:10;;;;;;;35.83;12.97;;;-3.90;99.90;;;;;;5256601;28;20499;-52
2022/12/14 10:52:44;;;;;;;24.87;13.60;;;-3.90;99.90;;;;;;5258534;28;20822;-53
2022/12/14 10:55:28;;;;;;;32.27;15.17;;;-3.90;99.90;;;;;;5251263;28;20935;-52
2022/12/14 10:58:00;;;;;;;27.37;13.50;;;-3.90;99.90;;;;;;5252266;28;20467;-52
2022/12/14 11:00:30;;;;;;;30.37;13.63;;;-3.80;99.90;;;;;;5253370;28;20473;-53
2022/12/14 11:03:05;;;;;;;25.90;14.87;;;-3.90;99.90;;;;;;5249066;28;20457;-53
2022/12/14 11:06:08;;;;;;;24.43;13.87;;;-3.80;99.90;;;;;;5257230;28;20521;-52
2022/12/14 11:08:47;;;;;;;25.43;13.27;;;-3.80;99.90;;;;;;5256265;28;20443;-51
2022/12/14 11:11:23;;;;;;;22.70;13.20;;;-3.70;99.90;;;;;;5252416;28;20427;-54
2022/12/14 11:14:06;;;;;;;24.10;13.30;;;-3.60;99.90;;;;;;5256308;28;20470;-52
2022/12/14 11:16:39;;;;;;;20.60;13.70;;;-3.60;99.90;;;;;;5258672;28;20543;-53
2022/12/14 11:19:22;;;;;;;25.67;13.37;;;-3.50;99.90;;;;;;5233408;28;20868;-53
2022/12/14 11:22:13;;;;;;;23.37;13.67;;;-3.40;99.90;;;;;;5255809;28;20438;-54
2022/12/14 11:24:47;;;;;;;26.07;14.20;;;-3.30;99.90;;;;;;5259784;28;20470;-52
2022/12/14 11:27:20;;;;;;;26.60;13.80;;;-3.30;99.90;;;;;;5260434;28;20498;-53
2022/12/14 11:29:50;;;;;;;25.53;15.40;;;-3.30;99.90;;;;;;5258729;28;20425;-52
2022/12/14 11:32:24;;;;;;;20.47;12.20;;;-3.20;99.90;;;;;;5251909;28;21493;-53
2022/12/14 11:34:57;;;;;;;30.63;14.17;;;-3.30;99.90;;;;;;5254078;28;20621;-52
2022/12/14 11:37:30;;;;;;;30.20;14.53;;;-3.30;99.90;;;;;;5254010;28;20428;-51
2022/12/14 11:40:04;;;;;;;28.03;15.00;;;-3.40;99.90;;;;;;5260009;28;20468;-54
2022/12/14 11:42:36;;;;;;;25.17;12.90;;;-3.40;99.90;;;;;;5271730;28;20470;-53
2022/12/14 11:45:25;;;;;;;26.10;13.77;;;-3.30;99.90;;;;;;5259824;28;20544;-53
2022/12/14 11:48:26;;;;;;;22.27;13.37;;;-3.30;99.90;;;;;;5257882;28;20433;-51
2022/12/14 11:51:12;;;;;;;25.53;14.23;;;-3.30;99.90;;;;;;5238349;28;20558;-52
2022/12/14 11:53:42;;;;;;;23.40;13.40;;;-3.30;99.90;;;;;;5252249;28;20455;-53
2022/12/14 11:56:15;;;;;;;32.80;14.50;;;-3.20;99.90;;;;;;5252517;28;20433;-54
2022/12/14 11:58:51;;;;;;;29.33;15.23;;;-3.10;99.90;;;;;;5256969;28;20237;-54
2022/12/14 12:01:25;;;;;;;29.37;15.60;;;-3.10;99.90;;;;;;5258198;28;20428;-54
2022/12/14 12:03:57;;;;;;;29.43;15.50;;;-3.10;99.90;;;;;;5255057;28;20468;-53
2022/12/14 12:06:29;;;;;;;27.47;13.87;;;-3.00;99.90;;;;;;5258255;28;20430;-52
2022/12/14 12:09:01;;;;;;;22.47;13.73;;;-3.00;99.90;;;;;;5254929;28;20455;-51
2022/12/14 12:11:33;;;;;;;26.70;14.70;;;-3.00;99.90;;;;;;5256453;28;20512;-53
2022/12/14 12:14:33;;;;;;;23.30;12.53;;;-3.00;99.90;;;;;;5262462;28;20512;-54
2022/12/14 12:17:28;;;;;;;22.43;12.40;;;-2.90;99.90;;;;;;5258638;28;20520;-52
2022/12/14 12:19:58;;;;;;;20.67;11.70;;;-2.90;99.90;;;;;;5272503;28;20903;-53
2022/12/14 12:22:30;;;;;;;28.53;13.67;;;-3.00;99.90;;;;;;5266126;28;20480;-52
2022/12/14 12:25:04;;;;;;;25.27;14.27;;;-3.00;99.90;;;;;;5272054;28;20189;-52
2022/12/14 12:27:35;;;;;;;21.60;13.73;;;-3.00;99.90;;;;;;5264823;28;20455;-53
2022/12/14 12:30:28;;;;;;;20.20;12.77;;;-3.10;99.90;;;;;;5264654;28;20578;-53
2022/12/14 12:33:23;;;;;;;29.70;14.50;;;-3.10;99.90;;;;;;5263663;28;20222;-53
2022/12/14 12:35:57;;;;;;;26.83;13.87;;;-3.10;99.90;;;;;;5280419;27;20439;-53
2022/12/14 12:38:38;;;;;;;27.60;14.70;;;-3.10;99.90;;;;;;5263920;28;20430;-53
2022/12/14 12:41:30;;;;;;;25.17;14.37;;;-3.20;99.90;;;;;;5250160;28;20445;-52
2022/12/14 12:44:32;;;;;;;22.27;12.73;;;-3.20;99.90;;;;;;5256894;28;20449;-51
2022/12/14 12:47:17;;;;;;;26.00;13.10;;;-3.30;99.90;;;;;;5260635;28;20823;-52
2022/12/14 12:49:48;;;;;;;28.37;13.60;;;-3.30;99.90;;;;;;5260399;28;20442;-50
2022/12/14 12:52:32;;;;;;;27.00;14.97;;;-3.20;99.90;;;;;;5253900;28;20440;-53
2022/12/14 12:55:08;;;;;;;21.17;13.50;;;-3.40;99.90;;;;;;5260658;28;20181;-52
2022/12/14 12:57:48;;;;;;;23.70;14.50;;;-3.40;99.90;;;;;;5260782;28;20450;-53
2022/12/14 13:00:23;;;;;;;23.13;12.83;;;-3.40;99.90;;;;;;5254718;28;20463;-52
2022/12/14 13:03:00;;;;;;;48.23;14.60;;;-3.30;99.90;;;;;;5258161;28;20458;-51
2022/12/14 13:05:33;;;;;;;22.77;13.53;;;-3.20;99.90;;;;;;5257537;28;20497;-52
2022/12/14 13:08:12;;;;;;;27.50;16.10;;;-3.20;99.90;;;;;;5256970;28;20846;-53
2022/12/14 13:10:44;;;;;;;36.20;19.30;;;-3.20;99.90;;;;;;5252522;28;20477;-53
2022/12/14 13:13:20;;;;;;;33.43;16.90;;;-3.20;99.90;;;;;;5253740;28;20502;-51
2022/12/14 13:15:55;;;;;;;31.93;14.30;;;-3.20;99.90;;;;;;5260033;28;20429;-52
2022/12/14 13:18:30;;;;;;;22.90;13.50;;;-3.20;99.90;;;;;;5258662;28;20476;-52
2022/12/14 13:21:25;;;;;;;22.50;12.87;;;-3.20;99.90;;;;;;5260153;28;20958;-53
2022/12/14 13:23:56;;;;;;;24.93;13.37;;;-3.20;99.90;;;;;;5261007;28;20466;-51
2022/12/14 13:26:49;;;;;;;20.57;12.67;;;-3.20;99.90;;;;;;5255595;28;20427;-52
2022/12/14 13:29:38;;;;;;;20.73;12.63;;;-3.20;99.90;;;;;;5256103;28;20437;-53